Nakhon Pathom, Thailand
Current Conditions -  °F | °C
As of 1:00 PM on Sunday 23 Nov 2014 (Local Time) from VTBD Reporting Station
Scattered Clouds Scattered Clouds  
Wind Chill: 91°   Ceiling: Unl
Heat Index: 98°   Visibility: 6mi
Dew Point: 72°   Wind: 8mph
Humidity: 52%   Direction: 20°NNE
Pressure: 29.83"   Gusts: NA
Location:  13.82°N, 100.06°E
Report Text: VTBD 230600Z 02007KT 9999 FEW025 SCT300 33/22 Q1010 NOSIG
Loading
Personal Weather Stations






























Interactive Weather Map New forecast layout! Learn more

10-Day Weather Forecast

Advertisements
Track Severe Weather on mobile